South Fort Myers, Florida
Current Conditions -  °F | °C
As of 9:53 PM on Saturday 25 Oct 2014 (Local Time) from KFMY Reporting Station
Clear Clear  
Wind Chill: 69°   Ceiling: Unl
Heat Index: 69°   Visibility: 10mi
Dew Point: 58°   Wind: 6mph
Humidity: 68%   Direction: 20°NNE
Pressure: 29.96"   Gusts: NA
Location:  26.6372°N, 81.8725°W
Report Text: KFMY 260153Z 02005KT 10SM CLR 21/14 A2996 RMK AO2 SLP147 T02060144 $
Loading
Personal Weather Stations






























Interactive Weather Map
Tropical Storm Tracking
New forecast layout! Learn more

10-Day Weather Forecast

Advertisements
Track Severe Weather on mobile